Time;durP1;ratioP1;P1;durP2;ratioP2;P2;SDS_P1;SDS_P2;PMS_P1;PMS_P2;Temp;Humidity;BMP_temperature;BMP_pressure;BME280_temperature;BME280_humidity;BME280_pressure;Samples;Min_cycle;Max_cycle;Signal;HPM_P1;HPM_P2
2022/03/26 00:00:20;;;;;;;;;;;7.20;99.90;;;;;;5012070;28;20042;-68
2022/03/26 00:02:45;;;;;;;106.78;47.15;;;7.20;99.90;;;;;;5019130;28;19986;-68
2022/03/26 00:05:11;;;;;;;115.93;48.87;;;7.20;99.90;;;;;;5022872;28;20390;-68
2022/03/26 00:07:37;;;;;;;116.05;51.45;;;7.20;99.90;;;;;;5017590;28;20542;-69
2022/03/26 00:10:04;;;;;;;121.57;49.13;;;7.10;99.90;;;;;;5024414;28;20414;-71
2022/03/26 00:12:29;;;;;;;;;;;7.10;99.90;;;;;;4998171;28;20046;-71
2022/03/26 00:14:55;;;;;;;107.28;45.40;;;7.10;99.90;;;;;;5019534;28;19921;-71
2022/03/26 00:17:20;;;;;;;124.63;50.00;;;7.00;99.90;;;;;;5012906;28;20304;-71
2022/03/26 00:19:46;;;;;;;121.63;51.67;;;7.10;99.90;;;;;;5005458;28;20045;-71
2022/03/26 00:22:11;;;;;;;121.30;51.70;;;7.00;99.90;;;;;;5019276;28;20080;-72
2022/03/26 00:24:37;;;;;;;121.57;50.87;;;7.00;99.90;;;;;;5021370;28;20082;-71
2022/03/26 00:27:03;;;;;;;122.53;52.13;;;7.00;99.90;;;;;;5012087;28;20072;-69
2022/03/26 00:29:31;;;;;;;124.27;53.20;;;7.00;99.90;;;;;;5014488;28;20099;-69
2022/03/26 00:31:57;;;;;;;134.60;54.95;;;7.00;99.90;;;;;;5020357;28;20037;-68
2022/03/26 00:34:23;;;;;;;133.38;53.85;;;7.00;99.90;;;;;;5016083;28;20402;-69
2022/03/26 00:36:49;;;;;;;133.40;55.33;;;7.00;99.90;;;;;;4993823;28;20037;-71
2022/03/26 00:39:14;;;;;;;135.20;53.27;;;7.00;99.90;;;;;;5028599;28;20037;-74
2022/03/26 00:41:40;;;;;;;118.97;48.53;;;6.90;99.90;;;;;;5033040;28;20148;-69
2022/03/26 00:44:05;;;;;;;122.60;50.80;;;6.90;99.90;;;;;;5009031;28;20174;-68
2022/03/26 00:46:31;;;;;;;129.87;52.30;;;6.90;99.90;;;;;;5028227;28;20187;-69
2022/03/26 00:48:56;;;;;;;128.33;51.97;;;6.90;99.90;;;;;;5025921;28;20354;-68
2022/03/26 00:51:22;;;;;;;137.23;58.20;;;6.80;99.90;;;;;;5012897;28;20049;-69
2022/03/26 00:53:48;;;;;;;124.23;52.83;;;6.80;99.90;;;;;;5028941;28;20055;-69
2022/03/26 00:56:16;;;;;;;128.73;53.43;;;6.80;99.90;;;;;;5034832;28;20041;-69
2022/03/26 00:58:43;;;;;;;126.97;53.40;;;6.70;99.90;;;;;;5026751;28;20036;-68
2022/03/26 01:01:09;;;;;;;136.80;53.45;;;6.70;99.90;;;;;;5025669;28;20037;-69
2022/03/26 01:03:34;;;;;;;139.33;56.00;;;6.70;99.90;;;;;;5011457;28;20065;-69
2022/03/26 01:06:00;;;;;;;124.63;52.00;;;6.70;99.90;;;;;;5034563;28;20051;-68
2022/03/26 01:08:29;;;;;;;135.77;55.00;;;6.70;99.90;;;;;;5017256;28;20526;-68
2022/03/26 01:10:54;;;;;;;125.45;52.05;;;6.70;99.90;;;;;;5035982;28;20129;-68
2022/03/26 01:13:20;;;;;;;132.00;53.90;;;6.60;99.90;;;;;;5016731;28;20435;-68
2022/03/26 01:15:46;;;;;;;136.07;52.10;;;6.60;99.90;;;;;;5008404;28;20088;-68
2022/03/26 01:18:11;;;;;;;130.50;52.70;;;6.60;99.90;;;;;;5032760;28;20136;-68
2022/03/26 01:20:37;;;;;;;132.37;54.93;;;6.60;99.90;;;;;;5024421;28;20033;-68
2022/03/26 01:23:02;;;;;;;128.57;52.33;;;6.60;99.90;;;;;;5021162;28;20545;-68
2022/03/26 01:25:30;;;;;;;129.50;51.63;;;6.50;99.90;;;;;;5028569;28;20046;-68
2022/03/26 01:27:56;;;;;;;120.95;50.35;;;6.40;99.90;;;;;;5021598;28;20328;-68
2022/03/26 01:30:24;;;;;;;114.60;51.77;;;6.40;99.90;;;;;;5010441;28;20077;-68
2022/03/26 01:32:49;;;;;;;128.52;51.28;;;6.40;99.90;;;;;;5008693;28;20049;-68
2022/03/26 01:35:15;;;;;;;113.60;50.80;;;6.40;99.90;;;;;;5011566;28;20543;-68
2022/03/26 01:37:40;;;;;;;117.53;48.47;;;6.40;99.90;;;;;;5009973;28;20064;-68
2022/03/26 01:40:07;;;;;;;131.77;54.77;;;6.40;99.90;;;;;;5034281;28;20399;-68
2022/03/26 01:42:32;;;;;;;128.38;52.40;;;6.30;99.90;;;;;;5021603;28;20044;-68
2022/03/26 01:44:58;;;;;;;139.07;54.30;;;6.30;99.90;;;;;;5006339;28;20041;-68
2022/03/26 01:47:24;;;;;;;131.55;52.88;;;6.30;99.90;;;;;;5032784;28;20045;-68
2022/03/26 01:49:51;;;;;;;128.37;53.60;;;6.20;99.90;;;;;;5026589;28;20171;-68
2022/03/26 01:52:52;;;;;;;;;;;6.20;99.90;;;;;;5075167;22;20040;-81
2022/03/26 01:59:29;;;;;;;128.30;50.45;;;6.20;99.90;;;;;;5021361;28;20052;-81
2022/03/26 02:02:12;;;;;;;120.33;49.33;;;6.00;99.90;;;;;;5039468;28;20052;-80
2022/03/26 02:08:51;;;;;;;123.65;50.97;;;6.00;99.90;;;;;;5037306;28;20044;-80
2022/03/26 02:11:28;;;;;;;129.95;51.88;;;5.90;99.90;;;;;;4920979;28;20097;-81
2022/03/26 02:14:25;;;;;;;126.97;53.38;;;5.80;99.90;;;;;;4938882;28;20051;-81
2022/03/26 02:23:52;;;;;;;;;;;;;;;;;;;;;
2022/03/26 02:27:05;;;;;;;146.32;55.88;;;5.90;99.90;;;;;;5039912;28;20391;-84
2022/03/26 02:30:08;;;;;;;;;;;;;;;;;;;;;
2022/03/26 02:33:53;;;;;;;140.88;57.28;;;6.00;99.90;;;;;;5054997;28;20049;-83
2022/03/26 02:36:49;;;;;;;133.65;53.25;;;6.10;99.90;;;;;;5059451;28;20102;-82
2022/03/26 02:39:34;;;;;;;132.73;53.30;;;6.10;99.90;;;;;;5042679;28;20464;-83
2022/03/26 02:42:26;;;;;;;135.98;53.65;;;6.10;99.90;;;;;;5035648;28;20422;-80
2022/03/26 02:45:38;;;;;;;;;;;;;;;;;;;;;
2022/03/26 02:48:12;;;;;;;134.43;54.25;;;6.20;99.90;;;;;;5039825;28;20072;-83
2022/03/26 02:51:47;;;;;;;;;;;;;;;;;;;;;
2022/03/26 02:54:39;;;;;;;128.73;52.50;;;6.10;99.90;;;;;;5013559;28;20518;-83
2022/03/26 02:57:35;;;;;;;133.30;52.08;;;6.10;99.90;;;;;;5015267;28;20052;-83
2022/03/26 03:00:34;;;;;;;134.63;51.85;;;6.10;99.90;;;;;;5019011;28;20045;-84
2022/03/26 03:03:08;;;;;;;131.85;53.53;;;6.10;99.90;;;;;;5022931;28;20044;-83
2022/03/26 03:05:58;;;;;;;128.88;53.38;;;6.10;99.90;;;;;;5011960;28;20040;-83
2022/03/26 03:09:08;;;;;;;116.97;47.75;;;6.00;99.90;;;;;;5023520;28;20043;-83
2022/03/26 03:12:12;;;;;;;;;;;;;;;;;;;;;
2022/03/26 03:19:12;;;;;;;129.52;49.47;;;5.90;99.90;;;;;;4976312;28;20116;-81
2022/03/26 03:21:50;;;;;;;128.15;52.83;;;5.80;99.90;;;;;;5051689;28;20066;-84
2022/03/26 03:24:29;;;;;;;135.90;53.03;;;5.70;99.90;;;;;;5024541;28;20519;-81
2022/03/26 03:30:50;;;;;;;135.15;51.85;;;5.70;99.90;;;;;;5028693;28;20044;-83
2022/03/26 03:33:42;;;;;;;135.70;53.70;;;5.70;99.90;;;;;;5032455;28;20434;-82
2022/03/26 03:36:28;;;;;;;136.27;53.13;;;5.70;99.90;;;;;;5021703;28;20052;-83
2022/03/26 03:42:22;;;;;;;;;;;;;;;;;;;;;
2022/03/26 03:51:49;;;;;;;146.52;52.78;;;5.60;99.90;;;;;;5036830;28;20559;-83
2022/03/26 03:54:43;;;;;;;141.20;55.20;;;5.70;99.90;;;;;;5026625;28;20144;-83
2022/03/26 03:57:42;;;;;;;142.40;54.78;;;5.80;99.90;;;;;;5033073;28;20097;-83
2022/03/26 04:00:27;;;;;;;140.90;53.30;;;5.70;99.90;;;;;;5051522;28;20161;-83
2022/03/26 04:03:08;;;;;;;138.35;53.90;;;5.70;99.90;;;;;;5021633;28;20464;-82
2022/03/26 04:06:01;;;;;;;;;;;;;;;;;;;;;
2022/03/26 04:08:52;;;;;;;135.27;52.90;;;5.80;99.90;;;;;;5038791;28;20145;-81
2022/03/26 04:11:34;;;;;;;138.90;53.40;;;5.60;99.90;;;;;;5026258;28;20208;-83
2022/03/26 04:14:12;;;;;;;136.40;54.88;;;5.60;99.90;;;;;;5023821;28;20324;-84
2022/03/26 04:17:24;;;;;;;135.07;51.13;;;5.60;99.90;;;;;;5022791;28;20412;-83
2022/03/26 04:20:14;;;;;;;130.32;49.63;;;5.50;99.90;;;;;;5019080;28;20131;-83
2022/03/26 04:27:38;;;;;;;139.20;53.88;;;5.60;99.90;;;;;;4948731;28;20097;-84
2022/03/26 04:30:38;;;;;;;133.23;48.30;;;5.50;99.90;;;;;;4956625;28;20072;-80
2022/03/26 04:33:27;;;;;;;140.65;52.47;;;5.50;99.90;;;;;;4942269;28;20054;-83
2022/03/26 04:36:21;;;;;;;;;;;;;;;;;;;;;
2022/03/26 04:39:04;;;;;;;132.88;53.08;;;5.40;99.90;;;;;;4984673;28;20050;-84
2022/03/26 04:45:35;;;;;;;114.30;47.17;;;5.30;99.90;;;;;;5036565;28;20040;-84
2022/03/26 04:48:10;;;;;;;140.23;49.88;;;5.30;99.90;;;;;;5023265;28;20115;-82
2022/03/26 04:50:52;;;;;;;132.48;52.15;;;5.20;99.90;;;;;;5023061;28;20044;-84
2022/03/26 04:56:41;;;;;;;132.15;50.25;;;5.20;99.90;;;;;;5052874;28;20127;-83
2022/03/26 05:00:09;;;;;;;116.97;47.03;;;5.20;99.90;;;;;;5028167;28;20056;-83
2022/03/26 05:07:45;;;;;;;133.73;48.50;;;5.20;99.90;;;;;;5006287;28;20469;-84
2022/03/26 05:09:58;;;;;;;129.05;48.53;;;5.20;99.90;;;;;;4962076;28;20116;-83
2022/03/26 05:12:57;;;;;;;130.17;51.90;;;5.20;99.90;;;;;;4977473;28;20054;-82
2022/03/26 05:19:30;;;;;;;124.78;48.35;;;5.20;99.90;;;;;;4990881;28;20053;-83
2022/03/26 05:22:29;;;;;;;127.28;49.97;;;5.10;99.90;;;;;;5007285;28;20064;-83
2022/03/26 05:25:07;;;;;;;125.63;47.90;;;5.10;99.90;;;;;;5020624;28;20052;-83
2022/03/26 05:28:26;;;;;;;131.73;51.92;;;5.20;99.90;;;;;;5011932;28;20053;-83
2022/03/26 05:34:50;;;;;;;128.35;51.03;;;5.10;99.90;;;;;;4976284;28;20116;-83
2022/03/26 05:37:58;;;;;;;131.73;51.53;;;5.20;99.90;;;;;;5009055;28;20118;-80
2022/03/26 05:40:27;;;;;;;132.00;48.33;;;5.10;99.90;;;;;;5020914;28;20057;-83
2022/03/26 05:42:58;;;;;;;120.72;51.00;;;5.10;99.90;;;;;;5040605;28;20044;-83
2022/03/26 05:49:36;;;;;;;131.00;49.47;;;5.20;99.90;;;;;;5033640;28;20123;-83
2022/03/26 05:52:25;;;;;;;135.52;51.53;;;5.20;99.90;;;;;;5035836;28;20076;-83
2022/03/26 05:55:42;;;;;;;133.55;50.67;;;5.30;99.90;;;;;;5055315;28;20524;-83
2022/03/26 05:58:43;;;;;;;127.32;48.92;;;5.30;99.90;;;;;;4944846;28;20201;-84
2022/03/26 06:02:05;;;;;;;140.45;53.38;;;5.40;99.90;;;;;;4957098;28;20050;-83
2022/03/26 06:04:46;;;;;;;132.02;53.00;;;5.50;99.90;;;;;;5017493;28;20083;-83
2022/03/26 06:07:50;;;;;;;137.50;53.58;;;5.60;99.90;;;;;;5040416;28;20133;-83
2022/03/26 06:10:30;;;;;;;127.20;50.95;;;5.60;99.90;;;;;;4981278;28;20093;-83
2022/03/26 06:13:31;;;;;;;136.15;53.00;;;5.60;99.90;;;;;;5042515;28;20040;-83
2022/03/26 06:16:37;;;;;;;142.18;52.13;;;5.70;99.90;;;;;;5038343;28;20478;-83
2022/03/26 06:19:38;;;;;;;132.07;51.05;;;5.70;99.90;;;;;;5043550;28;20052;-83
2022/03/26 06:22:05;;;;;;;133.18;50.85;;;5.80;99.90;;;;;;5022979;28;20048;-83
2022/03/26 06:25:10;;;;;;;128.80;51.03;;;5.80;99.90;;;;;;5025443;28;20047;-83
2022/03/26 06:27:50;;;;;;;126.88;50.83;;;5.80;99.90;;;;;;5023668;28;20822;-83
2022/03/26 06:30:59;;;;;;;136.77;51.92;;;5.90;99.90;;;;;;5041398;28;20056;-83
2022/03/26 06:33:49;;;;;;;134.13;51.70;;;6.00;99.90;;;;;;5039935;28;20039;-81
2022/03/26 06:36:41;;;;;;;128.70;48.97;;;6.00;99.90;;;;;;5041504;28;20334;-83
2022/03/26 06:39:58;;;;;;;128.18;52.13;;;6.10;99.90;;;;;;5026984;28;20076;-83
2022/03/26 06:42:25;;;;;;;124.97;49.75;;;6.10;99.90;;;;;;4927247;28;20112;-82
2022/03/26 06:45:10;;;;;;;129.90;50.28;;;6.20;99.90;;;;;;5018192;28;20053;-83
2022/03/26 06:48:29;;;;;;;114.28;45.67;;;6.30;99.90;;;;;;5024715;28;20048;-83
2022/03/26 06:51:05;;;;;;;116.63;47.70;;;6.30;99.90;;;;;;5044381;28;20051;-82
2022/03/26 06:54:02;;;;;;;114.75;47.47;;;6.40;99.90;;;;;;5061366;28;20808;-83
2022/03/26 06:56:30;;;;;;;121.35;47.63;;;6.50;99.90;;;;;;5017438;28;20090;-82
2022/03/26 07:02:33;;;;;;;120.45;48.30;;;6.70;99.90;;;;;;5047415;28;20125;-83
2022/03/26 07:05:49;;;;;;;113.47;46.78;;;6.80;99.90;;;;;;5024083;28;20063;-83
2022/03/26 07:08:35;;;;;;;111.70;46.55;;;6.90;99.90;;;;;;5038170;28;20041;-82
2022/03/26 07:12:30;;;;;;;113.25;47.42;;;7.00;99.90;;;;;;5023052;28;20679;-83
2022/03/26 07:15:34;;;;;;;116.63;46.83;;;7.10;99.90;;;;;;5004908;28;20029;-83
2022/03/26 07:18:09;;;;;;;107.18;45.08;;;7.30;99.90;;;;;;5016128;28;20685;-82
2022/03/26 07:20:51;;;;;;;;;;;7.30;99.90;;;;;;5018305;28;20051;-84
2022/03/26 07:23:40;;;;;;;108.60;43.28;;;7.40;99.90;;;;;;5027860;28;19927;-84
2022/03/26 07:26:27;;;;;;;111.95;45.08;;;7.50;99.90;;;;;;5027135;28;20475;-83
2022/03/26 07:29:48;;;;;;;107.57;44.05;;;7.60;99.90;;;;;;5021226;28;20063;-83
2022/03/26 07:32:36;;;;;;;110.07;42.60;;;7.70;99.90;;;;;;5000874;28;20292;-82
2022/03/26 07:35:05;;;;;;;107.00;44.47;;;7.80;99.90;;;;;;5039821;28;20044;-81
2022/03/26 07:37:45;;;;;;;107.22;42.53;;;7.90;99.90;;;;;;5038575;28;20052;-82
2022/03/26 07:40:48;;;;;;;95.78;40.38;;;8.00;99.90;;;;;;5035273;28;20047;-83
2022/03/26 07:46:35;;;;;;;102.60;41.88;;;8.20;99.90;;;;;;5058664;28;20135;-83
2022/03/26 07:49:41;;;;;;;90.93;40.40;;;8.30;99.90;;;;;;5023946;28;20052;-83
2022/03/26 07:52:07;;;;;;;95.63;41.75;;;8.30;99.90;;;;;;5116922;22;22013;-69
2022/03/26 07:54:32;;;;;;;97.72;40.42;;;8.40;99.90;;;;;;5029643;28;20045;-69
2022/03/26 07:56:58;;;;;;;96.37;41.93;;;8.50;99.90;;;;;;5016958;28;20038;-72
2022/03/26 07:59:23;;;;;;;98.07;39.43;;;8.60;99.90;;;;;;5025079;28;20256;-69
2022/03/26 08:01:49;;;;;;;96.13;41.23;;;8.80;99.90;;;;;;4999007;28;20034;-70
2022/03/26 08:04:15;;;;;;;86.27;37.73;;;8.80;99.90;;;;;;5022961;28;20033;-69
2022/03/26 08:06:40;;;;;;;102.07;40.80;;;9.00;99.90;;;;;;5012396;28;20060;-69
2022/03/26 08:09:06;;;;;;;89.70;38.23;;;9.10;99.90;;;;;;4998779;28;20050;-69
2022/03/26 08:11:32;;;;;;;89.20;39.47;;;9.10;99.90;;;;;;5019225;28;20522;-69
2022/03/26 08:13:57;;;;;;;90.27;40.03;;;9.20;99.90;;;;;;5001635;28;20041;-69
2022/03/26 08:16:23;;;;;;;95.87;39.83;;;9.30;99.90;;;;;;5019901;28;20044;-69
2022/03/26 08:18:48;;;;;;;94.90;39.50;;;9.40;99.90;;;;;;4996034;28;20038;-69
2022/03/26 08:21:15;;;;;;;85.90;37.00;;;9.50;99.90;;;;;;5013025;28;20512;-69
2022/03/26 08:23:41;;;;;;;83.60;37.15;;;9.60;99.90;;;;;;5000575;28;20056;-71
2022/03/26 08:28:52;;;;;;;82.03;34.28;;;9.80;99.90;;;;;;5006821;28;20685;-70
2022/03/26 08:31:20;;;;;;;74.97;32.28;;;9.90;99.90;;;;;;5018575;28;20493;-69
2022/03/26 08:33:46;;;;;;;71.45;31.95;;;10.00;99.90;;;;;;5010006;28;20044;-69
2022/03/26 08:36:13;;;;;;;80.47;34.10;;;10.10;99.90;;;;;;5000841;28;20497;-72
2022/03/26 08:38:39;;;;;;;74.97;33.67;;;10.20;99.90;;;;;;5003162;28;20052;-70
2022/03/26 08:41:05;;;;;;;71.13;31.70;;;10.40;99.90;;;;;;5006403;28;20044;-69
2022/03/26 08:43:32;;;;;;;78.43;30.48;;;10.40;99.90;;;;;;5022037;28;20034;-69
2022/03/26 08:45:58;;;;;;;66.15;28.60;;;10.60;99.90;;;;;;5011174;28;20060;-69
2022/03/26 08:48:23;;;;;;;70.22;30.23;;;10.70;99.90;;;;;;5002427;28;20499;-69
2022/03/26 08:50:49;;;;;;;64.63;30.47;;;10.80;99.90;;;;;;4997154;28;20048;-69
2022/03/26 08:53:15;;;;;;;60.63;27.08;;;11.00;99.90;;;;;;5005693;28;20295;-69
2022/03/26 08:55:41;;;;;;;64.57;27.53;;;11.10;99.90;;;;;;5001946;28;20041;-69
2022/03/26 08:58:08;;;;;;;54.17;26.67;;;11.20;99.90;;;;;;4994989;28;20144;-69
2022/03/26 09:00:35;;;;;;;59.65;26.77;;;11.40;99.90;;;;;;5000967;28;20044;-70
2022/03/26 09:03:02;;;;;;;63.63;25.15;;;11.50;99.90;;;;;;4993623;28;20045;-69
2022/03/26 09:05:28;;;;;;;56.03;25.92;;;11.70;99.90;;;;;;5024377;28;20073;-69
2022/03/26 09:07:54;;;;;;;58.17;27.08;;;11.80;99.90;;;;;;5020967;28;20044;-69
2022/03/26 09:10:20;;;;;;;58.05;26.20;;;11.80;99.90;;;;;;4995947;28;20187;-69
2022/03/26 09:12:46;;;;;;;56.43;25.60;;;11.90;99.90;;;;;;5012588;28;20521;-69
2022/03/26 09:15:13;;;;;;;60.83;26.70;;;12.00;99.90;;;;;;5010252;28;20034;-69
2022/03/26 09:17:39;;;;;;;57.83;27.10;;;12.10;99.90;;;;;;5008443;28;20506;-69
2022/03/26 09:20:05;;;;;;;62.92;27.65;;;12.20;99.90;;;;;;5009782;28;20452;-69
2022/03/26 09:22:32;;;;;;;58.88;28.08;;;12.30;99.90;;;;;;4989441;28;20520;-70
2022/03/26 09:24:59;;;;;;;54.05;26.23;;;12.40;99.90;;;;;;5026331;28;20501;-69
2022/03/26 09:27:24;;;;;;;53.00;25.35;;;12.60;99.90;;;;;;5000639;28;20455;-69
2022/03/26 09:29:50;;;;;;;55.17;26.17;;;12.60;99.90;;;;;;5000876;28;20084;-70
2022/03/26 09:32:16;;;;;;;56.60;27.20;;;12.70;99.90;;;;;;4994226;28;20298;-70
2022/03/26 09:34:41;;;;;;;53.90;26.23;;;12.80;99.90;;;;;;5002503;28;20332;-69
2022/03/26 09:37:07;;;;;;;55.03;27.23;;;12.90;99.90;;;;;;5006679;28;20666;-70
2022/03/26 09:39:32;;;;;;;57.83;28.60;;;13.00;99.90;;;;;;5002963;28;20414;-70
2022/03/26 09:41:58;;;;;;;57.73;28.63;;;13.20;99.90;;;;;;5000058;28;20296;-70
2022/03/26 09:44:25;;;;;;;59.15;29.27;;;13.30;99.90;;;;;;4997687;28;20049;-70
2022/03/26 09:46:51;;;;;;;51.88;26.23;;;13.40;99.90;;;;;;5016653;28;20037;-70
2022/03/26 09:49:20;;;;;;;49.20;24.83;;;13.50;99.90;;;;;;5011300;28;20694;-70
2022/03/26 09:51:46;;;;;;;46.13;24.38;;;13.70;99.90;;;;;;4995819;28;20041;-70
2022/03/26 09:54:13;;;;;;;52.58;24.77;;;13.80;99.90;;;;;;5025040;28;20064;-70
2022/03/26 09:56:39;;;;;;;43.85;23.20;;;13.80;99.90;;;;;;5018588;28;20037;-69
2022/03/26 09:59:05;;;;;;;44.85;21.88;;;14.00;99.90;;;;;;5017610;28;20369;-70
2022/03/26 10:01:33;;;;;;;41.53;20.55;;;14.10;99.90;;;;;;5024661;28;20029;-70
2022/03/26 10:04:12;;;;;;;43.25;21.35;;;14.20;99.90;;;;;;5010832;28;20425;-70
2022/03/26 10:06:49;;;;;;;40.85;19.85;;;14.30;99.90;;;;;;5024087;28;20409;-70
2022/03/26 10:09:39;;;;;;;42.22;18.63;;;14.50;99.90;;;;;;4996386;28;20091;-70
2022/03/26 10:12:15;;;;;;;36.85;18.40;;;14.60;99.90;;;;;;4999998;28;20053;-70
2022/03/26 10:14:44;;;;;;;29.70;15.65;;;14.70;99.90;;;;;;5003134;28;20088;-70
2022/03/26 10:17:31;;;;;;;27.55;15.40;;;14.80;99.90;;;;;;4996029;28;20073;-70
2022/03/26 10:20:01;;;;;;;25.55;13.70;;;14.90;99.90;;;;;;5022310;28;20611;-71
2022/03/26 10:22:34;;;;;;;32.17;15.98;;;15.00;99.70;;;;;;5012505;28;20033;-70
2022/03/26 10:25:07;;;;;;;26.42;13.52;;;15.10;97.60;;;;;;4995081;28;20048;-70
2022/03/26 10:27:47;;;;;;;20.20;9.75;;;15.20;94.70;;;;;;4999670;28;20405;-70
2022/03/26 10:30:15;;;;;;;21.25;10.90;;;15.30;92.40;;;;;;4993335;28;20049;-70
2022/03/26 10:32:50;;;;;;;18.77;9.57;;;15.50;91.70;;;;;;5002426;28;20402;-71
2022/03/26 10:35:24;;;;;;;14.82;7.97;;;15.60;87.20;;;;;;5002872;28;20044;-70
2022/03/26 10:37:58;;;;;;;15.07;7.43;;;15.70;85.60;;;;;;4994152;28;20057;-70
2022/03/26 10:40:30;;;;;;;14.00;7.10;;;15.80;84.20;;;;;;5001057;28;20553;-71
2022/03/26 10:43:05;;;;;;;16.45;7.45;;;15.90;79.90;;;;;;4997743;28;20049;-70
2022/03/26 10:45:33;;;;;;;14.90;7.40;;;15.90;77.00;;;;;;5000414;28;20569;-70
2022/03/26 10:48:00;;;;;;;17.63;7.75;;;16.10;79.40;;;;;;5009381;28;20431;-70
2022/03/26 10:50:32;;;;;;;14.65;5.95;;;16.20;79.60;;;;;;5017403;28;20034;-70
2022/03/26 10:53:03;;;;;;;12.32;5.80;;;16.30;76.00;;;;;;5004578;28;20046;-70
2022/03/26 10:55:29;;;;;;;13.30;7.07;;;16.30;74.30;;;;;;4998267;28;20077;-69
2022/03/26 10:57:56;;;;;;;11.48;5.68;;;16.40;72.80;;;;;;5012861;28;20064;-70
2022/03/26 11:00:21;;;;;;;15.27;6.57;;;16.40;72.30;;;;;;5013468;28;20092;-70
2022/03/26 11:02:48;;;;;;;10.57;6.10;;;16.50;70.60;;;;;;5015521;28;20041;-71
2022/03/26 11:05:13;;;;;;;;;;;16.60;70.40;;;;;;5025071;28;20343;-70
2022/03/26 11:07:41;;;;;;;13.65;6.47;;;16.60;69.00;;;;;;5000761;28;20394;-70
2022/03/26 11:10:12;;;;;;;9.60;5.63;;;16.70;71.90;;;;;;4997375;28;20433;-70
2022/03/26 11:12:43;;;;;;;14.10;5.70;;;16.80;70.00;;;;;;5002976;28;20437;-70
2022/03/26 11:15:31;;;;;;;12.35;6.00;;;16.80;67.30;;;;;;5018578;28;20038;-71
2022/03/26 11:18:27;;;;;;;11.63;5.15;;;16.80;66.80;;;;;;5016693;28;20677;-70
2022/03/26 11:21:18;;;;;;;9.32;5.50;;;16.90;67.20;;;;;;4996412;28;20502;-71
2022/03/26 11:23:58;;;;;;;7.90;4.53;;;16.90;64.10;;;;;;5001498;28;20044;-70
2022/03/26 11:26:50;;;;;;;8.52;4.60;;;17.00;65.30;;;;;;5016787;28;20111;-73
2022/03/26 11:29:53;;;;;;;9.80;4.30;;;17.10;65.50;;;;;;4985350;28;20137;-73
2022/03/26 11:32:26;;;;;;;9.63;5.20;;;17.10;64.50;;;;;;5006999;28;20130;-74
2022/03/26 11:35:02;;;;;;;8.48;4.95;;;17.10;65.60;;;;;;5000771;28;20134;-74
2022/03/26 11:37:28;;;;;;;;;;;17.20;65.20;;;;;;4997672;28;20071;-75
2022/03/26 11:39:57;;;;;;;7.55;4.70;;;17.20;63.70;;;;;;5019818;28;19921;-74
2022/03/26 11:42:35;;;;;;;9.15;4.85;;;17.20;65.90;;;;;;5002937;28;20033;-73
2022/03/26 11:50:47;;;;;;;7.95;4.30;;;17.20;63.90;;;;;;4998988;28;20041;-74
2022/03/26 11:53:34;;;;;;;8.48;4.20;;;17.10;64.00;;;;;;5009588;28;20183;-74
2022/03/26 11:56:02;;;;;;;8.32;4.57;;;17.20;62.70;;;;;;4998448;28;20029;-75
2022/03/26 11:58:28;;;;;;;8.77;4.75;;;17.20;63.00;;;;;;5024477;28;20049;-76
2022/03/26 12:01:01;;;;;;;8.70;4.00;;;17.20;63.10;;;;;;5004067;28;20548;-76
2022/03/26 12:03:29;;;;;;;6.50;4.10;;;17.30;63.50;;;;;;4996621;28;20098;-76
2022/03/26 12:08:53;;;;;;;6.32;3.25;;;17.40;61.60;;;;;;4997902;28;20318;-76
2022/03/26 12:11:31;;;;;;;12.35;4.15;;;17.40;61.30;;;;;;4996339;28;20497;-75
2022/03/26 12:14:08;;;;;;;7.15;3.60;;;17.40;61.40;;;;;;5000749;28;20055;-75
2022/03/26 12:16:49;;;;;;;8.95;3.35;;;17.50;60.70;;;;;;5002560;28;20065;-76
2022/03/26 12:19:45;;;;;;;6.40;3.22;;;17.40;59.60;;;;;;5027195;28;20409;-76
2022/03/26 12:22:23;;;;;;;6.38;3.25;;;17.30;60.20;;;;;;5010868;28;20049;-75
2022/03/26 12:24:50;;;;;;;5.97;2.95;;;17.20;60.60;;;;;;5000006;28;20041;-75
2022/03/26 12:27:17;;;;;;;6.82;3.78;;;17.20;60.80;;;;;;5003298;28;20084;-75
2022/03/26 12:29:43;;;;;;;;;;;17.30;61.20;;;;;;5008231;28;20061;-76
2022/03/26 12:32:08;;;;;;;9.13;3.28;;;17.10;60.40;;;;;;5024014;28;19916;-75
2022/03/26 12:34:50;;;;;;;10.30;3.45;;;17.20;61.70;;;;;;5005845;28;20044;-76
2022/03/26 12:37:16;;;;;;;8.70;4.07;;;17.30;62.20;;;;;;5006394;28;20037;-76
2022/03/26 12:39:45;;;;;;;9.32;4.00;;;17.40;61.60;;;;;;5001565;28;20650;-76
2022/03/26 12:42:11;;;;;;;6.53;4.13;;;17.30;61.30;;;;;;5005521;28;20087;-76
2022/03/26 12:44:37;;;;;;;5.85;3.10;;;17.30;61.90;;;;;;4994888;28;20046;-75
2022/03/26 12:47:03;;;;;;;5.88;3.38;;;17.20;61.90;;;;;;5012624;28;20066;-75
2022/03/26 12:49:29;;;;;;;6.00;3.33;;;17.20;62.50;;;;;;4998216;28;20033;-75
2022/03/26 12:51:55;;;;;;;6.88;3.25;;;17.20;62.70;;;;;;4981981;28;20419;-77
2022/03/26 12:54:22;;;;;;;10.27;3.58;;;17.30;62.90;;;;;;5006721;28;20045;-75
2022/03/26 12:56:52;;;;;;;7.35;3.00;;;17.40;63.80;;;;;;4994457;28;20147;-76
2022/03/26 12:59:18;;;;;;;6.15;2.60;;;17.40;63.60;;;;;;4996559;28;20510;-75
2022/03/26 13:01:43;;;;;;;4.45;2.45;;;17.50;64.00;;;;;;5005826;28;20086;-74
2022/03/26 13:04:09;;;;;;;5.40;2.75;;;17.40;62.30;;;;;;5004843;28;20495;-73
2022/03/26 13:06:35;;;;;;;4.85;2.88;;;17.40;62.50;;;;;;4999948;28;20057;-76
2022/03/26 13:09:01;;;;;;;6.82;2.80;;;17.20;61.90;;;;;;4988105;28;20398;-73
2022/03/26 13:11:29;;;;;;;10.57;3.47;;;17.10;62.60;;;;;;5016006;28;20401;-74
2022/03/26 13:13:57;;;;;;;11.48;3.40;;;17.20;63.60;;;;;;5008579;28;20045;-73
2022/03/26 13:16:26;;;;;;;5.07;3.03;;;17.10;63.90;;;;;;5013793;28;20037;-73
2022/03/26 13:19:08;;;;;;;12.57;3.42;;;17.20;64.20;;;;;;5001249;28;20049;-74
2022/03/26 13:21:41;;;;;;;8.32;4.57;;;17.20;64.30;;;;;;5005702;28;20171;-73
2022/03/26 13:24:09;;;;;;;8.27;4.22;;;17.10;65.30;;;;;;5002258;28;20045;-74
2022/03/26 13:26:52;;;;;;;6.60;3.75;;;17.10;66.70;;;;;;5001192;28;20060;-74
2022/03/26 13:29:23;;;;;;;8.82;4.80;;;17.00;68.20;;;;;;5025348;28;20128;-74
2022/03/26 13:31:54;;;;;;;10.00;3.80;;;17.00;69.40;;;;;;5011272;28;20132;-73
2022/03/26 13:34:25;;;;;;;5.82;3.30;;;17.00;70.90;;;;;;5016190;28;20042;-78
2022/03/26 13:36:52;;;;;;;6.65;3.40;;;17.00;70.90;;;;;;5007739;28;20045;-79
2022/03/26 13:39:27;;;;;;;8.85;3.42;;;16.90;70.60;;;;;;4990599;28;20038;-77
2022/03/26 13:41:54;;;;;;;6.72;3.42;;;16.70;70.00;;;;;;4996822;28;20042;-75
2022/03/26 13:44:21;;;;;;;8.27;3.20;;;16.60;71.50;;;;;;4979479;28;20042;-74
2022/03/26 13:46:47;;;;;;;6.78;2.90;;;16.50;72.60;;;;;;4995720;28;20441;-72
2022/03/26 13:49:42;;;;;;;7.07;3.35;;;16.30;73.10;;;;;;4997731;28;20353;-76
2022/03/26 13:55:22;;;;;;;4.78;2.97;;;16.10;76.10;;;;;;5031789;28;20100;-74
2022/03/26 13:57:49;;;;;;;5.45;2.45;;;16.00;76.70;;;;;;5015665;28;20343;-74
2022/03/26 14:00:15;;;;;;;5.25;2.35;;;16.10;74.90;;;;;;5025321;28;20129;-73
2022/03/26 14:02:41;;;;;;;6.13;3.60;;;16.20;74.80;;;;;;5025736;28;20056;-74
2022/03/26 14:05:53;;;;;;;6.53;3.20;;;16.30;74.80;;;;;;5028106;28;20142;-75
2022/03/26 14:12:21;;;;;;;8.75;2.92;;;16.40;74.10;;;;;;5011572;28;20077;-73
2022/03/26 14:14:47;;;;;;;7.00;3.60;;;16.50;74.60;;;;;;4999232;28;20103;-74
2022/03/26 14:17:13;;;;;;;7.38;3.13;;;16.60;74.30;;;;;;5010451;28;20394;-74
2022/03/26 14:19:39;;;;;;;5.78;3.45;;;16.70;74.40;;;;;;5033604;28;20042;-73
2022/03/26 14:22:06;;;;;;;4.97;2.20;;;16.80;74.30;;;;;;5012118;28;20159;-74
2022/03/26 14:24:32;;;;;;;5.57;3.10;;;16.90;72.60;;;;;;5032142;28;20044;-74
2022/03/26 14:26:57;;;;;;;5.88;3.05;;;16.90;71.30;;;;;;5018176;28;20053;-73
2022/03/26 14:29:24;;;;;;;6.07;3.10;;;16.80;71.30;;;;;;5019353;28;20088;-74
2022/03/26 14:31:50;;;;;;;6.45;2.90;;;16.60;73.20;;;;;;5027505;28;20148;-73
2022/03/26 14:34:16;;;;;;;6.28;2.60;;;16.70;73.50;;;;;;5017567;28;20478;-73
2022/03/26 14:36:41;;;;;;;8.73;3.30;;;16.70;72.40;;;;;;5018495;28;20037;-73
2022/03/26 14:39:07;;;;;;;5.93;3.08;;;16.70;72.80;;;;;;5015753;28;20041;-74
2022/03/26 14:41:33;;;;;;;7.35;3.30;;;16.70;72.80;;;;;;5018646;28;20104;-73
2022/03/26 14:43:58;;;;;;;6.97;3.53;;;16.70;73.20;;;;;;5028846;28;20509;-72
2022/03/26 14:46:24;;;;;;;6.90;3.13;;;16.60;73.50;;;;;;5013686;28;20128;-73
2022/03/26 14:48:50;;;;;;;4.88;2.60;;;16.60;73.80;;;;;;5023006;28;20506;-72
2022/03/26 14:51:16;;;;;;;3.53;1.67;;;16.60;74.90;;;;;;5021103;28;20267;-71
2022/03/26 14:53:41;;;;;;;5.95;3.33;;;16.70;75.00;;;;;;5016802;28;20052;-72
2022/03/26 14:56:08;;;;;;;4.35;2.20;;;16.70;74.40;;;;;;5024777;28;20045;-72
2022/03/26 14:58:35;;;;;;;4.25;2.15;;;16.60;74.80;;;;;;5016565;28;20126;-72